^^
Datos históricos de la estación: Murcia-Puente Tocinos
Diario Informe para Septiembre 15, 2019 Unidades:  Métrico    Ingés   Ambas
Diario Semanal Mensual Anual
  Máxima: Mínima: Promedio:
Temperatura: 23.1 °C 15.8 °C 19 °C
Punto de rocio: 14.4 °C 7.2 °C 10.7 °C
Humedad: 88% 45% 59%
Velocidad viento: 20.1km/h 0km/h 10.8km/h
Racha viento: 37.8km/h - -
Viento- - ESE
Presión: 1014.4 hPa 1011.0 hPa -
Precipitación: 0.0 mm    
 
 
Tabla de datos para Septiembre 15, 2019
Hora Temperatura Punto de rocio Presión Viento Velocidad viento Racha viento Humedad Intensidad lluvia(por hora) Nubes
00:04 19.4 °C 7.8 °C 1013.7 hPa Sur 8.7 km/h 14.5 km/h 47% 0.0 mm
00:09 19.4 °C 8 °C 1013.7 hPa Sur 8.4 km/h 13 km/h 47.6% 0.0 mm
00:14 19.4 °C 7.8 °C 1013.7 hPa Sur 7.6 km/h 13 km/h 47% 0.0 mm
00:19 19.4 °C 7.8 °C 1013.7 hPa Sur 7.8 km/h 12.9 km/h 47% 0.0 mm
00:24 19.4 °C 7.8 °C 1013.6 hPa SSO 8.4 km/h 11.1 km/h 47% 0.0 mm
00:29 19.5 °C 7.9 °C 1013.6 hPa SSO 7.9 km/h 11.3 km/h 47% 0.0 mm
00:34 19.6 °C 7.9 °C 1013.6 hPa SO 6.9 km/h 11.1 km/h 46.9% 0.0 mm
00:39 19.7 °C 7.7 °C 1013.6 hPa SO 6.8 km/h 11.3 km/h 46% 0.0 mm
00:44 19.8 °C 7.6 °C 1013.6 hPa SO 6.5 km/h 13 km/h 45.4% 0.0 mm
00:49 19.9 °C 7.6 °C 1013.6 hPa SO 7.1 km/h 14.5 km/h 45% 0.0 mm
00:54 19.9 °C 7.6 °C 1013.6 hPa OSO 8.4 km/h 14.5 km/h 45% 0.0 mm
00:59 19.9 °C 7.9 °C 1013.6 hPa OSO 8 km/h 14.8 km/h 46.1% 0.0 mm
01:04 19.7 °C 8.1 °C 1013.7 hPa OSO 7.6 km/h 16.1 km/h 47.2% 0.0 mm
01:09 19.5 °C 8.3 °C 1013.7 hPa OSO 7.9 km/h 14.5 km/h 48.3% 0.0 mm
01:14 19.3 °C 8.3 °C 1013.7 hPa OSO 8.4 km/h 11.3 km/h 49.1% 0.0 mm
01:19 19.2 °C 8.5 °C 1013.7 hPa OSO 7.3 km/h 11.1 km/h 50% 0.0 mm
01:24 19.1 °C 8.4 °C 1013.6 hPa OSO 5.8 km/h 11.3 km/h 50% 0.0 mm
01:29 19 °C 8.4 °C 1013.6 hPa OSO 6.1 km/h 11.3 km/h 50% 0.0 mm
01:34 19 °C 8.3 °C 1013.7 hPa SSO 6.5 km/h 9.7 km/h 49.9% 0.0 mm
01:39 19.1 °C 8.4 °C 1013.7 hPa SSO 5.8 km/h 9.7 km/h 49.9% 0.0 mm
01:44 19.1 °C 8.4 °C 1013.7 hPa Sur 5 km/h 8.4 km/h 50% 0.0 mm
01:49 19 °C 8.3 °C 1013.7 hPa SSE 4.8 km/h 10 km/h 50% 0.0 mm
01:54 18.7 °C 8.3 °C 1013.5 hPa SSE 4.6 km/h 10 km/h 50.8% 0.0 mm
01:59 18.3 °C 8.1 °C 1013.5 hPa SSE 5.8 km/h 11.1 km/h 51.5% 0.0 mm
02:04 18 °C 8.2 °C 1013.5 hPa Sur 6.9 km/h 11.3 km/h 52.7% 0.0 mm
02:09 17.9 °C 8.4 °C 1013.4 hPa Sur 7.2 km/h 11.9 km/h 53.7% 0.0 mm
02:14 17.8 °C 8.4 °C 1013.4 hPa Sur 7.6 km/h 13.7 km/h 54% 0.0 mm
02:19 17.8 °C 8.4 °C 1013.4 hPa Sur 7.9 km/h 14.5 km/h 54% 0.0 mm
02:24 17.8 °C 8.4 °C 1013.3 hPa Sur 8.4 km/h 12.9 km/h 53.9% 0.0 mm
02:29 17.8 °C 8.2 °C 1013.3 hPa Sur 7.7 km/h 11.3 km/h 53.4% 0.0 mm
02:34 17.8 °C 8.1 °C 1013.3 hPa SSO 6.9 km/h 11.3 km/h 53% 0.0 mm
02:39 17.8 °C 8.1 °C 1013.2 hPa SO 6.1 km/h 9.7 km/h 53% 0.0 mm
02:44 17.9 °C 8.2 °C 1013.2 hPa OSO 5 km/h 9.7 km/h 53% 0.0 mm
02:49 17.9 °C 8.2 °C 1013.2 hPa SO 4.5 km/h 8 km/h 53% 0.0 mm
02:54 17.9 °C 7.9 °C 1012.9 hPa Sur 3.9 km/h 9.5 km/h 52.1% 0.0 mm
02:59 18 °C 8 °C 1012.9 hPa Sur 4.8 km/h 11.1 km/h 52% 0.0 mm
03:04 17.9 °C 7.9 °C 1012.9 hPa Sur 5.8 km/h 11.3 km/h 52% 0.0 mm
03:09 17.8 °C 7.9 °C 1012.8 hPa SSO 6.1 km/h 13 km/h 52.3% 0.0 mm
03:14 17.8 °C 8.1 °C 1012.8 hPa SO 6.5 km/h 13 km/h 53% 0.0 mm
03:19 17.9 °C 8.1 °C 1012.8 hPa SO 6.5 km/h 12.9 km/h 52.7% 0.0 mm
03:24 17.9 °C 7.9 °C 1012.8 hPa SO 6.5 km/h 11.3 km/h 52% 0.0 mm
03:29 17.9 °C 7.9 °C 1012.8 hPa OSO 6.5 km/h 11.3 km/h 52% 0.0 mm
03:34 17.9 °C 7.9 °C 1012.8 hPa SO 6.5 km/h 11.3 km/h 52% 0.0 mm
03:39 17.9 °C 7.9 °C 1012.7 hPa SSO 5.8 km/h 8.4 km/h 52% 0.0 mm
03:44 17.9 °C 8.1 °C 1012.7 hPa SSO 5 km/h 8 km/h 52.9% 0.0 mm
03:49 17.9 °C 8.2 °C 1012.7 hPa SSO 4.5 km/h 8 km/h 53% 0.0 mm
03:54 17.8 °C 8.3 °C 1012.6 hPa Sur 3.9 km/h 7.4 km/h 53.7% 0.0 mm
03:59 17.8 °C 8.4 °C 1012.6 hPa SSE 4.3 km/h 8 km/h 54.2% 0.0 mm
04:04 17.7 °C 8.6 °C 1012.6 hPa SSE 4.6 km/h 8 km/h 55.3% 0.0 mm
04:09 17.4 °C 8.7 °C 1012.5 hPa SSE 4.7 km/h 10 km/h 56.4% 0.0 mm
04:14 17.2 °C 8.7 °C 1012.5 hPa SSE 4.7 km/h 9.7 km/h 57.4% 0.0 mm
04:19 17.1 °C 8.7 °C 1012.5 hPa Sur 4.8 km/h 9.7 km/h 58% 0.0 mm
04:24 16.9 °C 8.5 °C 1012.5 hPa SSE 5 km/h 9.7 km/h 57.6% 0.0 mm
04:29 16.9 °C 8.3 °C 1012.5 hPa SSO 5 km/h 9.5 km/h 57% 0.0 mm
04:34 17 °C 8.2 °C 1012.5 hPa SSE 5 km/h 9.7 km/h 56.1% 0.0 mm
04:39 17.1 °C 8.2 °C 1012.3 hPa SE 4.5 km/h 8 km/h 56% 0.0 mm
04:44 17.2 °C 8.4 °C 1012.3 hPa SE 3.9 km/h 7.4 km/h 56.4% 0.0 mm
04:49 17.2 °C 8.6 °C 1012.3 hPa SE 3.9 km/h 8 km/h 57% 0.0 mm
04:54 17.1 °C 8.6 °C 1012.3 hPa SE 3.9 km/h 5.8 km/h 57.3% 0.0 mm
04:59 16.9 °C 8.6 °C 1012.3 hPa SE 3.4 km/h 6.4 km/h 58% 0.0 mm
05:04 16.8 °C 8.6 °C 1012.3 hPa SE 2.9 km/h 8 km/h 58.6% 0.0 mm
05:09 16.7 °C 8.7 °C 1012.3 hPa SSE 3.7 km/h 8.4 km/h 59% 0.0 mm
05:14 16.7 °C 8.6 °C 1012.3 hPa Sur 4.7 km/h 9.3 km/h 58.6% 0.0 mm
05:19 16.7 °C 8.3 °C 1012.3 hPa Sur 5.1 km/h 9.7 km/h 57.7% 0.0 mm
05:24 16.9 °C 8.1 °C 1012.1 hPa SSO 5.8 km/h 9.7 km/h 56.4% 0.0 mm
05:29 17.1 °C 8.1 °C 1012.1 hPa SO 5.4 km/h 9.5 km/h 55.4% 0.0 mm
05:34 17.3 °C 7.8 °C 1012.1 hPa SO 5 km/h 9.7 km/h 53.6% 0.0 mm
05:39 17.4 °C 7.6 °C 1012.0 hPa SO 5.3 km/h 9.7 km/h 52.2% 0.0 mm
05:44 17.6 °C 7.4 °C 1012.0 hPa SO 5.8 km/h 8 km/h 51.1% 0.0 mm
05:49 17.7 °C 7.2 °C 1012.0 hPa SO 5 km/h 8 km/h 50.2% 0.0 mm
05:54 17.7 °C 7.3 °C 1011.8 hPa SO 3.9 km/h 8 km/h 50.5% 0.0 mm
05:59 17.7 °C 7.8 °C 1011.8 hPa SO 3.1 km/h 3.2 km/h 52.1% 0.0 mm
06:04 17.7 °C 8.1 °C 1011.8 hPa SO 2.2 km/h   53.4% 0.0 mm
06:09 17.7 °C 8.3 °C 1011.8 hPa SO 1.3 km/h 4.7 km/h 54% 0.0 mm
06:14 17.6 °C 8.1 °C 1011.8 hPa Calm   6.4 km/h 53.7% 0.0 mm
06:19 17.5 °C 8.4 °C 1011.8 hPa SO 1.7 km/h 8 km/h 54.9% 0.0 mm
06:24 17.4 °C 8.3 °C 1011.8 hPa SSO 3.9 km/h 8 km/h 55% 0.0 mm
06:29 17.3 °C 8.2 °C 1011.8 hPa SSO 4.2 km/h 8 km/h 55% 0.0 mm
06:34 17.3 °C 8.1 °C 1011.8 hPa SSO 4.7 km/h 8 km/h 54.9% 0.0 mm
06:39 17.3 °C 8.1 °C 1011.8 hPa Sur 4.7 km/h 8 km/h 54.8% 0.0 mm
06:44 17.3 °C 8.3 °C 1011.8 hPa SSE 4.7 km/h 10 km/h 55.6% 0.0 mm
06:49 17.2 °C 8.3 °C 1011.9 hPa SSE 5.1 km/h 11.1 km/h 56% 0.0 mm
06:54 16.9 °C 8.3 °C 1011.9 hPa SSE 5.8 km/h 11.3 km/h 56.9% 0.0 mm
06:59 16.6 °C 8.3 °C 1011.9 hPa SSE 7.1 km/h 11.1 km/h 58% 0.0 mm
07:04 16.4 °C 8.3 °C 1011.9 hPa Sur 8.4 km/h 11.3 km/h 58.8% 0.0 mm
07:09 16.3 °C 8.3 °C 1011.9 hPa Sur 7.5 km/h 10 km/h 59% 0.0 mm
07:14 16.3 °C 8.2 °C 1011.9 hPa Sur 6.5 km/h 10 km/h 59% 0.0 mm
07:19 16.2 °C 7.9 °C 1012.1 hPa Sur 6.5 km/h 10 km/h 58% 0.0 mm
07:24 16.3 °C 7.6 °C 1012.1 hPa Sur 6.5 km/h 11.9 km/h 56.4% 0.0 mm
07:29 16.4 °C 7.3 °C 1012.1 hPa Sur 6.7 km/h 11.3 km/h 54.8% 0.0 mm
07:34 16.6 °C 7.2 °C 1012.2 hPa SSO 6.9 km/h 8 km/h 54% 0.0 mm
07:39 16.7 °C 7.3 °C 1012.2 hPa SSO 6.1 km/h 8 km/h 54% 0.0 mm
07:44 16.8 °C 7.5 °C 1012.2 hPa Sur 5 km/h 8.4 km/h 54% 0.0 mm
07:49 16.9 °C 7.5 °C 1012.4 hPa Sur 5.3 km/h 9.5 km/h 54% 0.0 mm
07:54 17 °C 7.4 °C 1012.4 hPa Sur 5.8 km/h 9.7 km/h 53.4% 0.0 mm
07:59 17.1 °C 7.4 °C 1012.4 hPa Sur 5.8 km/h 9.7 km/h 53% 0.0 mm
08:04 17.1 °C 7.4 °C 1012.5 hPa Sur 5.8 km/h 8.4 km/h 53% 0.0 mm
08:09 17.1 °C 7.5 °C 1012.5 hPa SSO 5.4 km/h 8.4 km/h 53% 0.0 mm
08:14 17.2 °C 7.5 °C 1012.5 hPa Sur 5 km/h 8 km/h 53% 0.0 mm
08:19 17.3 °C 7.4 °C 1012.6 hPa Sur 5 km/h 9.3 km/h 52.1% 0.0 mm
08:24 17.3 °C 7.5 °C 1012.6 hPa Sur 5 km/h 9.7 km/h 52.6% 0.0 mm
08:29 17.4 °C 7.6 °C 1012.6 hPa Sur 4.5 km/h 8 km/h 52.4% 0.0 mm
08:34 17.4 °C 7.5 °C 1012.6 hPa Sur 3.9 km/h 8 km/h 52% 0.0 mm
08:39 17.6 °C 7.7 °C 1012.6 hPa Sur 3.6 km/h 8 km/h 52.2% 0.0 mm
08:44 17.8 °C 8 °C 1012.6 hPa SE 3.2 km/h 8.4 km/h 52.9% 0.0 mm
08:49 17.7 °C 8.5 °C 1012.8 hPa NE 3.2 km/h 8 km/h 54.6% 0.0 mm
08:54 17.6 °C 8.4 °C 1012.8 hPa ENE 3.2 km/h 8 km/h 55% 0.0 mm
08:59 17.4 °C 8.2 °C 1012.8 hPa ENE 3.9 km/h 8.7 km/h 54.7% 0.0 mm
09:04 17.3 °C 8.2 °C 1012.8 hPa ENE 4.6 km/h 9.7 km/h 54.8% 0.0 mm
09:09 17.4 °C 8 °C 1012.8 hPa NE 5.1 km/h 11.1 km/h 54% 0.0 mm
09:14 17.4 °C 8 °C 1012.8 hPa NE 5.8 km/h 11.3 km/h 54% 0.0 mm
09:19 17.5 °C 7.9 °C 1012.9 hPa NE 5.4 km/h 11.3 km/h 53.4% 0.0 mm
09:24 17.5 °C 7.9 °C 1012.9 hPa NE 5 km/h 16.1 km/h 53.1% 0.0 mm
09:29 17.3 °C 8 °C 1012.9 hPa NE 6.4 km/h 16.7 km/h 54.1% 0.0 mm
09:34 17.3 °C 8.2 °C 1013.1 hPa NNE 8.4 km/h 16.1 km/h 55.1% 0.0 mm
09:39 17.3 °C 8.5 °C 1013.1 hPa NNE 7.2 km/h 9.7 km/h 56% 0.0 mm
09:44 17.6 °C 8.7 °C 1013.1 hPa NNE 5.8 km/h 8.4 km/h 56% 0.0 mm
09:49 17.9 °C 8.8 °C 1013.2 hPa North 5.3 km/h 10 km/h 55.3% 0.0 mm
09:54 18.4 °C 9.1 °C 1013.2 hPa NE 4.7 km/h 10.3 km/h 54.8% 0.0 mm
09:59 18.9 °C 9.1 °C 1013.2 hPa NE 5.5 km/h 11.9 km/h 53.1% 0.0 mm
10:04 19.2 °C 9.1 °C 1013.2 hPa NE 6.5 km/h 20.4 km/h 52% 0.0 mm
10:09 19.5 °C 9.5 °C 1013.1 hPa NE 7.4 km/h 20.9 km/h 52.5% 0.0 mm
10:14 19.8 °C 9.7 °C 1013.1 hPa NE 8.7 km/h 24.5 km/h 52% 0.0 mm
10:19 20 °C 9.6 °C 1013.1 hPa NE 11 km/h 24.1 km/h 51.1% 0.0 mm
10:24 20.2 °C 9.5 °C 1013.1 hPa NE 14 km/h 25.9 km/h 50.4% 0.0 mm
10:29 20.3 °C 9.2 °C 1013.1 hPa NE 14.9 km/h 34.3 km/h 49% 0.0 mm
10:34 20.2 °C 9.4 °C 1013.1 hPa NE 16.1 km/h 37 km/h 49.9% 0.0 mm
10:39 20.1 °C 9.9 °C 1013.1 hPa NE 16.9 km/h 37 km/h 51.8% 0.0 mm
10:44 20.2 °C 10.5 °C 1013.1 hPa NE 18 km/h 26.2 km/h 53.8% 0.0 mm
10:49 20.1 °C 10.8 °C 1013.4 hPa NE 17 km/h 25.9 km/h 54.9% 0.0 mm
10:54 20.1 °C 11.6 °C 1013.4 hPa NE 15.6 km/h 25.7 km/h 58.2% 0.0 mm
10:59 20.1 °C 12.2 °C 1013.4 hPa NE 15.8 km/h 27.8 km/h 60.8% 0.0 mm
11:04 20.1 °C 12.6 °C 1013.4 hPa NE 16.1 km/h 27.4 km/h 62% 0.0 mm
11:09 20.1 °C 12.7 °C 1013.2 hPa NE 16.2 km/h 25.7 km/h 62.3% 0.0 mm
11:14 20.2 °C 12.7 °C 1013.2 hPa NE 16.4 km/h 25.9 km/h 62.4% 0.0 mm
11:19 20.2 °C 12.5 °C 1013.2 hPa NE 16.4 km/h 27.8 km/h 61.3% 0.0 mm
11:24 20.3 °C 12.8 °C 1013.1 hPa NE 16.4 km/h 27.4 km/h 62.3% 0.0 mm
11:29 20.3 °C 13.1 °C 1013.1 hPa NE 16.7 km/h 29.8 km/h 63.3% 0.0 mm
11:34 20.3 °C 12.9 °C 1013.2 hPa NE 17.2 km/h 30.6 km/h 62.5% 0.0 mm
11:39 20.1 °C 12.9 °C 1013.2 hPa NE 17.7 km/h 30.9 km/h 63.2% 0.0 mm
11:44 20.1 °C 13.7 °C 1013.2 hPa NE 18.4 km/h 32.2 km/h 66.5% 0.0 mm
11:49 19.9 °C 14 °C 1013.2 hPa NE 18.6 km/h 32.2 km/h 68.8% 0.0 mm
11:54 19.8 °C 14.3 °C 1013.2 hPa NE 19 km/h 33.3 km/h 70.4% 0.0 mm
11:59 19.8 °C 14.4 °C 1013.2 hPa NE 19.4 km/h 33.8 km/h 71% 0.0 mm
12:04 19.7 °C 14.1 °C 1013.2 hPa NE 19.8 km/h 32.2 km/h 70.4% 0.0 mm
12:09 19.5 °C 13.7 °C 1013.1 hPa NE 19.9 km/h 32.2 km/h 69.1% 0.0 mm
12:14 19.5 °C 13.7 °C 1013.1 hPa NE 20.1 km/h 32.2 km/h 69% 0.0 mm
12:19 19.6 °C 13.5 °C 1013.1 hPa NE 19.4 km/h 29.8 km/h 68% 0.0 mm
12:24 19.7 °C 13.6 °C 1013.1 hPa NE 18.4 km/h 31.7 km/h 67.8% 0.0 mm
12:29 19.7 °C 13.7 °C 1013.1 hPa NE 18.4 km/h 32.2 km/h 68.3% 0.0 mm
12:34 19.7 °C 13.8 °C 1013.1 hPa NE 18.4 km/h 32.2 km/h 68.9% 0.0 mm
12:39 19.7 °C 13.7 °C 1013.1 hPa NE 19.1 km/h 32.2 km/h 68.6% 0.0 mm
12:44 19.8 °C 13.8 °C 1013.1 hPa NE 20.1 km/h 32.2 km/h 68.2% 0.0 mm
12:49 19.9 °C 13.9 °C 1013.1 hPa NE 20 km/h 31.7 km/h 68.4% 0.0 mm
12:54 19.9 °C 14 °C 1013.0 hPa NE 19.8 km/h 33.5 km/h 68.6% 0.0 mm
12:59 20.2 °C 14.1 °C 1013.0 hPa NE 20 km/h 37.8 km/h 68.1% 0.0 mm
13:04 20.3 °C 14.2 °C 1013.0 hPa NE 20.1 km/h 37 km/h 67.8% 0.0 mm
13:09 20.4 °C 14.3 °C 1012.8 hPa NE 20 km/h 37 km/h 68.2% 0.0 mm
13:14 20.3 °C 14.2 °C 1012.8 hPa NNE 19.8 km/h 31.5 km/h 68% 0.0 mm
13:19 20.3 °C 14.1 °C 1012.8 hPa NNE 19.8 km/h 32.2 km/h 67.7% 0.0 mm
13:24 20.4 °C 14.1 °C 1012.8 hPa NNE 19.8 km/h 32.8 km/h 67% 0.0 mm
13:29 20.5 °C 14.1 °C 1012.8 hPa NNE 19.5 km/h 32.2 km/h 66.8% 0.0 mm
13:34 20.7 °C 14 °C 1012.8 hPa NNE 19 km/h 37 km/h 65.6% 0.0 mm
13:39 20.6 °C 13.8 °C 1012.8 hPa NNE 19.5 km/h 37 km/h 64.9% 0.0 mm
13:44 20.7 °C 13.7 °C 1012.8 hPa NE 20.1 km/h 33.8 km/h 64.2% 0.0 mm
13:49 20.8 °C 13.7 °C 1012.8 hPa NNE 19.6 km/h 30.6 km/h 63.6% 0.0 mm
13:54 21.1 °C 13.7 °C 1012.6 hPa NNE 19 km/h 34.3 km/h 62.6% 0.0 mm
13:59 21.4 °C 13.6 °C 1012.6 hPa NE 18.7 km/h 33.8 km/h 61% 0.0 mm
14:04 21.7 °C 13.5 °C 1012.6 hPa NE 18.4 km/h 33.8 km/h 59.5% 0.0 mm
14:09 21.7 °C 13.2 °C 1012.4 hPa NE 17.9 km/h 33.8 km/h 58.5% 0.0 mm
14:14 21.9 °C 13 °C 1012.4 hPa NE 17.2 km/h 30.6 km/h 57% 0.0 mm
14:19 22.2 °C 13.1 °C 1012.4 hPa NE 16.7 km/h 30.6 km/h 56.3% 0.0 mm
14:24 22.5 °C 13.2 °C 1012.3 hPa NE 16.1 km/h 27 km/h 55.7% 0.0 mm
14:29 22.8 °C 13.1 °C 1012.3 hPa Este 14.3 km/h 27.8 km/h 54.7% 0.0 mm
14:34 22.9 °C 13 °C 1012.3 hPa Este 11.9 km/h 27.4 km/h 53.6% 0.0 mm
14:39 22.7 °C 12.9 °C 1012.3 hPa ESE 11.2 km/h 22.5 km/h 54.1% 0.0 mm
14:44 22.7 °C 13 °C 1012.3 hPa Este 10.3 km/h 20.9 km/h 54.2% 0.0 mm
14:49 22.7 °C 12.8 °C 1012.3 hPa Este 10.7 km/h 24.5 km/h 53.8% 0.0 mm
14:54 22.7 °C 12.8 °C 1012.2 hPa ESE 11.1 km/h 29.6 km/h 53.7% 0.0 mm
14:59 22.6 °C 12.7 °C 1012.2 hPa ESE 14.2 km/h 29 km/h 53.7% 0.0 mm
15:04 22.9 °C 12.8 °C 1012.2 hPa ESE 17.2 km/h 29.8 km/h 52.9% 0.0 mm
15:09 23.1 °C 12.7 °C 1012.0 hPa ESE 16.9 km/h 31.5 km/h 52% 0.0 mm
15:14 22.9 °C 12.5 °C 1012.0 hPa SE 16.4 km/h 32.2 km/h 52% 0.0 mm
15:19 22.9 °C 12.4 °C 1012.0 hPa ESE 16.7 km/h 33.3 km/h 51.9% 0.0 mm
15:24 22.7 °C 12.4 °C 1011.9 hPa ESE 17.2 km/h 33.8 km/h 52% 0.0 mm
15:29 22.8 °C 12.4 °C 1011.9 hPa ESE 17.2 km/h 30.6 km/h 52% 0.0 mm
15:34 22.7 °C 12.3 °C 1011.9 hPa ESE 17.2 km/h 30.6 km/h 52% 0.0 mm
15:39 22.6 °C 12.2 °C 1011.8 hPa SE 16.9 km/h 27.8 km/h 52% 0.0 mm
15:44 22.3 °C 12.1 °C 1011.8 hPa ESE 16.4 km/h 29.6 km/h 52.4% 0.0 mm
15:49 22.2 °C 12 °C 1011.8 hPa ESE 16.8 km/h 29.6 km/h 52.7% 0.0 mm
15:54 22.1 °C 11.9 °C 1011.5 hPa ESE 17.2 km/h 29.6 km/h 52.6% 0.0 mm
15:59 22.2 °C 11.9 °C 1011.5 hPa ESE 17.6 km/h 33.3 km/h 52.2% 0.0 mm
16:04 22.3 °C 11.9 °C 1011.6 hPa ESE 18 km/h 33.8 km/h 52% 0.0 mm
16:09 22.2 °C 11.9 °C 1011.6 hPa ESE 16.6 km/h 29 km/h 52.1% 0.0 mm
16:14 22 °C 11.8 °C 1011.6 hPa ESE 14.8 km/h 29.6 km/h 52.5% 0.0 mm
16:19 21.9 °C 11.9 °C 1011.6 hPa ESE 15.3 km/h 29 km/h 53% 0.0 mm
16:24 21.8 °C 11.8 °C 1011.5 hPa ESE 16.1 km/h 27.8 km/h 53% 0.0 mm
16:29 21.7 °C 12 °C 1011.5 hPa ESE 15.2 km/h 27.4 km/h 53.9% 0.0 mm
16:34 21.5 °C 11.8 °C 1011.5 hPa ESE 14 km/h 28.6 km/h 53.9% 0.0 mm
16:39 21.3 °C 11.7 °C 1011.5 hPa ESE 15.4 km/h 29.6 km/h 54.2% 0.0 mm
16:44 21.3 °C 11.8 °C 1011.5 hPa ESE 17.2 km/h 29.6 km/h 54.8% 0.0 mm
16:49 21.4 °C 12 °C 1011.5 hPa ESE 17.2 km/h 29 km/h 55% 0.0 mm
16:54 21.5 °C 12 °C 1011.4 hPa ESE 17.2 km/h 29.6 km/h 54.7% 0.0 mm
16:59 21.4 °C 12 °C 1011.4 hPa ESE 17.2 km/h 29.6 km/h 54.9% 0.0 mm
17:04 21.6 °C 12.1 °C 1011.4 hPa ESE 17.2 km/h 25.7 km/h 54.5% 0.0 mm
17:09 21.6 °C 11.9 °C 1011.3 hPa ESE 16.2 km/h 29.6 km/h 54% 0.0 mm
17:14 21.5 °C 11.8 °C 1011.3 hPa ESE 14.8 km/h 29 km/h 54.1% 0.0 mm
17:19 21.4 °C 12 °C 1011.3 hPa ESE 15.8 km/h 26.2 km/h 55% 0.0 mm
17:24 21.3 °C 11.9 °C 1011.2 hPa ESE 17.2 km/h 25.7 km/h 55% 0.0 mm
17:29 21.3 °C 11.9 °C 1011.2 hPa ESE 16.2 km/h 24.1 km/h 55% 0.0 mm
17:34 21.4 °C 11.9 °C 1011.2 hPa Este 14.8 km/h 24.1 km/h 54.5% 0.0 mm
17:39 21.4 °C 11.7 °C 1011.2 hPa ESE 14.8 km/h 24.1 km/h 54% 0.0 mm
17:44 21.3 °C 11.7 °C 1011.2 hPa ESE 14.8 km/h 24.1 km/h 54% 0.0 mm
17:49 21.7 °C 11.8 °C 1011.3 hPa ESE 14.3 km/h 24.5 km/h 53.4% 0.0 mm
17:54 21.7 °C 11.7 °C 1011.3 hPa ESE 13.7 km/h 24.1 km/h 53% 0.0 mm
17:59 21.7 °C 11.7 °C 1011.3 hPa ESE 14.9 km/h 24.1 km/h 53% 0.0 mm
18:04 21.8 °C 11.6 °C 1011.3 hPa ESE 16.1 km/h 24.1 km/h 52.4% 0.0 mm
18:09 21.9 °C 11.6 °C 1011.2 hPa ESE 14.8 km/h 25.9 km/h 52% 0.0 mm
18:14 21.7 °C 11.4 °C 1011.2 hPa SE 13 km/h 25.7 km/h 52% 0.0 mm
18:19 21.7 °C 11.4 °C 1011.2 hPa ESE 13.5 km/h 25.9 km/h 52% 0.0 mm
18:24 21.7 °C 11.4 °C 1011.0 hPa Este 14 km/h 25.7 km/h 52% 0.0 mm
18:29 21.7 °C 11.3 °C 1011.0 hPa Este 12.8 km/h 22.5 km/h 51.6% 0.0 mm
18:34 21.7 °C 11.3 °C 1011.2 hPa ENE 11.1 km/h 16.7 km/h 51.7% 0.0 mm
18:39 21.6 °C 11.3 °C 1011.2 hPa ENE 10.4 km/h 16.1 km/h 51.9% 0.0 mm
18:44 21.7 °C 11.4 °C 1011.2 hPa ENE 9.5 km/h 19 km/h 52% 0.0 mm
18:49 21.7 °C 11.3 °C 1011.3 hPa Este 9.2 km/h 19.3 km/h 51.7% 0.0 mm
18:54 21.5 °C 11.2 °C 1011.3 hPa Este 8.7 km/h 19.3 km/h 52% 0.0 mm
18:59 21.1 °C 11.5 °C 1011.3 hPa NE 10.3 km/h 25.9 km/h 54% 0.0 mm
19:04 20.8 °C 11.6 °C 1011.3 hPa ENE 11.9 km/h 25.7 km/h 55.4% 0.0 mm
19:09 20.7 °C 11.5 °C 1011.3 hPa ENE 12.4 km/h 24.5 km/h 55.9% 0.0 mm
19:14 20.4 °C 11.6 °C 1011.3 hPa NE 13 km/h 28.2 km/h 57% 0.0 mm
19:19 20.2 °C 11.4 °C 1011.6 hPa NE 13.8 km/h 27.4 km/h 57% 0.0 mm
19:24 19.9 °C 11.3 °C 1011.6 hPa NE 14.8 km/h 29.6 km/h 57.6% 0.0 mm
19:29 19.8 °C 11.3 °C 1011.6 hPa NE 16.3 km/h 29.6 km/h 58% 0.0 mm
19:34 19.7 °C 11.4 °C 1011.6 hPa NE 18.4 km/h 29 km/h 58.7% 0.0 mm
19:39 19.6 °C 11.5 °C 1011.5 hPa NE 17.9 km/h 29.6 km/h 59.6% 0.0 mm
19:44 19.6 °C 11.5 °C 1011.5 hPa NE 17.2 km/h 25.7 km/h 59.4% 0.0 mm
19:49 19.5 °C 11.4 °C 1011.8 hPa NE 16.2 km/h 28.2 km/h 59.4% 0.0 mm
19:54 19.4 °C 11.6 °C 1011.8 hPa NE 14.8 km/h 27.4 km/h 60.9% 0.0 mm
19:59 19.3 °C 11.6 °C 1011.8 hPa NE 14.8 km/h 25.9 km/h 61% 0.0 mm
20:04 19.2 °C 11.6 °C 1011.8 hPa NE 14.8 km/h 25.7 km/h 61.4% 0.0 mm
20:09 19.2 °C 11.7 °C 1011.8 hPa NE 14.3 km/h 22.5 km/h 62% 0.0 mm
20:14 19.1 °C 11.7 °C 1011.8 hPa NE 13.7 km/h 22.5 km/h 62% 0.0 mm
20:19 18.9 °C 11.6 °C 1012.0 hPa NE 13.7 km/h 20.9 km/h 62.3% 0.0 mm
20:24 18.8 °C 11.6 °C 1012.0 hPa NE 13.7 km/h 22.2 km/h 62.9% 0.0 mm
20:29 18.8 °C 11.8 °C 1012.0 hPa NE 13.7 km/h 22.5 km/h 64% 0.0 mm
20:34 18.6 °C 12.4 °C 1012.0 hPa NE 13.7 km/h 21.7 km/h 67.4% 0.0 mm
20:39 18.3 °C 12.6 °C 1012.0 hPa NE 13.4 km/h 22.5 km/h 69.5% 0.0 mm
20:44 18.1 °C 12.7 °C 1012.0 hPa NE 13 km/h 22.5 km/h 70.8% 0.0 mm
20:49 17.9 °C 12.7 °C 1012.4 hPa NE 13 km/h 22.5 km/h 71.7% 0.0 mm
20:54 17.9 °C 12.8 °C 1012.4 hPa NE 13 km/h 22.5 km/h 72% 0.0 mm
20:59 17.8 °C 12.7 °C 1012.4 hPa NE 11.5 km/h 17.7 km/h 72% 0.0 mm
21:04 17.8 °C 12.8 °C 1012.6 hPa NE 10 km/h 20.1 km/h 72.5% 0.0 mm
21:09 17.7 °C 12.8 °C 1012.6 hPa NE 11 km/h 20.9 km/h 73% 0.0 mm
21:14 17.7 °C 12.9 °C 1012.6 hPa NE 12.2 km/h 20.9 km/h 73.8% 0.0 mm
21:19 17.6 °C 13 °C 1012.9 hPa NE 12.1 km/h 19.3 km/h 74.6% 0.0 mm
21:24 17.4 °C 13 °C 1012.9 hPa NE 11.9 km/h 19 km/h 75.4% 0.0 mm
21:29 17.4 °C 13.1 °C 1012.9 hPa NE 11.6 km/h 19.3 km/h 75.9% 0.0 mm
21:34 17.3 °C 13 °C 1013.0 hPa NE 11.1 km/h 19.3 km/h 76% 0.0 mm
21:39 17.2 °C 13.2 °C 1013.0 hPa NE 10.4 km/h 16.1 km/h 77% 0.0 mm
21:44 17.2 °C 13.1 °C 1013.0 hPa NE 9.5 km/h 16.7 km/h 77% 0.0 mm
21:49 17.1 °C 13.1 °C 1013.0 hPa NE 9.7 km/h 17.2 km/h 77% 0.0 mm
21:54 17.1 °C 13.2 °C 1013.0 hPa NE 10 km/h 17.7 km/h 78% 0.0 mm
21:59 16.9 °C 13.1 °C 1013.0 hPa NE 10.1 km/h 16.7 km/h 78% 0.0 mm
22:04 16.9 °C 13.1 °C 1013.4 hPa NNE 10.3 km/h 18.5 km/h 78.5% 0.0 mm
22:09 16.8 °C 13.3 °C 1013.4 hPa NE 10.7 km/h 19.3 km/h 79.6% 0.0 mm
22:14 16.7 °C 13.4 °C 1013.4 hPa NNE 11.1 km/h 19.3 km/h 80.4% 0.0 mm
22:19 16.6 °C 13.4 °C 1013.4 hPa NE 11.1 km/h 19.3 km/h 81.5% 0.0 mm
22:24 16.5 °C 13.4 °C 1013.3 hPa NE 11.1 km/h 19.3 km/h 82% 0.0 mm
22:29 16.4 °C 13.5 °C 1013.3 hPa NNE 11.1 km/h 20.4 km/h 82.9% 0.0 mm
22:34 16.4 °C 13.5 °C 1013.7 hPa NE 11.1 km/h 20.9 km/h 83.1% 0.0 mm
22:39 16.3 °C 13.6 °C 1013.7 hPa NNE 10.8 km/h 17.2 km/h 84% 0.0 mm
22:44 16.2 °C 13.5 °C 1013.7 hPa NNE 10.3 km/h 17.7 km/h 84% 0.0 mm
22:49 16.2 °C 13.6 °C 1014.1 hPa NE 9.6 km/h 14.8 km/h 84.7% 0.0 mm
22:54 16.1 °C 13.6 °C 1014.1 hPa NNE 8.7 km/h 20.4 km/h 85% 0.0 mm
22:59 16.1 °C 13.6 °C 1014.1 hPa NE 9.1 km/h 20.9 km/h 85% 0.0 mm
23:04 16 °C 13.6 °C 1014.1 hPa NE 9.5 km/h 16.1 km/h 85.8% 0.0 mm
23:09 16 °C 13.7 °C 1014.1 hPa NE 9 km/h 15.6 km/h 86% 0.0 mm
23:14 15.9 °C 13.6 °C 1014.1 hPa NE 8.4 km/h 16.4 km/h 86.1% 0.0 mm
23:19 15.9 °C 13.7 °C 1014.1 hPa NE 8.8 km/h 16.7 km/h 87% 0.0 mm
23:24 15.8 °C 13.7 °C 1014.1 hPa NE 9.5 km/h 18.5 km/h 87% 0.0 mm
23:29 15.8 °C 13.7 °C 1014.1 hPa NE 9.7 km/h 19.3 km/h 87.3% 0.0 mm
23:34 15.8 °C 13.8 °C 1014.4 hPa NE 10 km/h 14.5 km/h 88% 0.0 mm
23:39 15.8 °C 13.8 °C 1014.4 hPa NE 9.4 km/h 15.6 km/h 88% 0.0 mm
23:44 15.8 °C 13.8 °C 1014.4 hPa NE 8.7 km/h 16.1 km/h 88% 0.0 mm
23:49 15.8 °C 13.8 °C 1014.4 hPa NE 8.6 km/h 16.1 km/h 88% 0.0 mm
23:54 15.8 °C 13.8 °C 1014.4 hPa NE 8.4 km/h 13 km/h 88% 0.0 mm
23:59 15.8 °C 13.8 °C 1014.4 hPa NE 8 km/h 12.9 km/h 88% 0.0 mm
Murcia-Puente Tocinos, España
Compliments of Weather Underground - 3 mb

La estación de MeteoMurcia.com, publica sus datos en los siguientes proyectos:

Weather Underground PWS IMURCIAP2 Meteoclimatic www.awekas.at

W3Counter
Web Analytics